sensor_id;sensor_type;location;lat;lon;timestamp;pressure;altitude;pressure_sealevel;temperature;humidity
83100;BME280;72972;51.784;4.660;2023-12-29T00:01:31;100901.50;;;10.25;80.76
83100;BME280;72972;51.784;4.660;2023-12-29T00:03:56;100890.44;;;10.18;80.30
83100;BME280;72972;51.784;4.660;2023-12-29T00:06:22;100891.22;;;10.27;80.15
83100;BME280;72972;51.784;4.660;2023-12-29T00:08:47;100893.38;;;10.31;79.16
83100;BME280;72972;51.784;4.660;2023-12-29T00:11:17;100884.75;;;10.34;79.83
83100;BME280;72972;51.784;4.660;2023-12-29T00:13:43;100887.03;;;10.31;79.43
83100;BME280;72972;51.784;4.660;2023-12-29T00:16:09;100869.72;;;10.30;79.68
83100;BME280;72972;51.784;4.660;2023-12-29T00:18:37;100863.78;;;10.27;80.19
83100;BME280;72972;51.784;4.660;2023-12-29T00:21:03;100886.16;;;10.30;79.88
83100;BME280;72972;51.784;4.660;2023-12-29T00:23:30;100881.66;;;10.23;80.24
83100;BME280;72972;51.784;4.660;2023-12-29T00:25:56;100894.06;;;10.19;80.06
83100;BME280;72972;51.784;4.660;2023-12-29T00:28:21;100872.75;;;10.21;79.98
83100;BME280;72972;51.784;4.660;2023-12-29T00:30:47;100877.41;;;10.20;80.77
83100;BME280;72972;51.784;4.660;2023-12-29T00:33:12;100873.09;;;10.11;81.04
83100;BME280;72972;51.784;4.660;2023-12-29T00:35:38;100858.94;;;10.08;80.56
83100;BME280;72972;51.784;4.660;2023-12-29T00:38:04;100877.72;;;10.11;82.24
83100;BME280;72972;51.784;4.660;2023-12-29T00:40:30;100874.22;;;10.02;82.61
83100;BME280;72972;51.784;4.660;2023-12-29T00:42:56;100879.31;;;10.05;82.08
83100;BME280;72972;51.784;4.660;2023-12-29T00:45:21;100882.63;;;10.01;82.30
83100;BME280;72972;51.784;4.660;2023-12-29T00:47:46;100877.41;;;10.06;82.39
83100;BME280;72972;51.784;4.660;2023-12-29T00:50:13;100868.34;;;10.05;81.98
83100;BME280;72972;51.784;4.660;2023-12-29T00:52:39;100888.38;;;10.06;82.09
83100;BME280;72972;51.784;4.660;2023-12-29T00:55:05;100879.50;;;10.04;83.12
83100;BME280;72972;51.784;4.660;2023-12-29T00:57:30;100871.59;;;9.94;83.34
83100;BME280;72972;51.784;4.660;2023-12-29T00:59:56;100869.22;;;9.91;83.88
83100;BME280;72972;51.784;4.660;2023-12-29T01:02:21;100877.66;;;9.90;83.05
83100;BME280;72972;51.784;4.660;2023-12-29T01:04:48;100875.25;;;10.01;82.66
83100;BME280;72972;51.784;4.660;2023-12-29T01:07:13;100870.72;;;9.94;82.32
83100;BME280;72972;51.784;4.660;2023-12-29T01:09:38;100882.06;;;10.05;81.78
83100;BME280;72972;51.784;4.660;2023-12-29T01:12:07;100888.56;;;10.04;82.03
83100;BME280;72972;51.784;4.660;2023-12-29T01:14:32;100889.41;;;10.05;81.66
83100;BME280;72972;51.784;4.660;2023-12-29T01:16:58;100878.84;;;10.02;82.36
83100;BME280;72972;51.784;4.660;2023-12-29T01:19:23;100877.34;;;9.99;82.91
83100;BME280;72972;51.784;4.660;2023-12-29T01:21:49;100885.38;;;10.01;82.84
83100;BME280;72972;51.784;4.660;2023-12-29T01:24:14;100878.38;;;9.98;83.25
83100;BME280;72972;51.784;4.660;2023-12-29T01:26:40;100874.91;;;9.90;83.36
83100;BME280;72972;51.784;4.660;2023-12-29T01:29:05;100870.84;;;9.86;83.75
83100;BME280;72972;51.784;4.660;2023-12-29T01:31:31;100872.75;;;9.85;84.60
83100;BME280;72972;51.784;4.660;2023-12-29T01:33:58;100854.16;;;9.81;85.07
83100;BME280;72972;51.784;4.660;2023-12-29T01:36:23;100856.97;;;9.73;85.51
83100;BME280;72972;51.784;4.660;2023-12-29T01:38:49;100869.91;;;9.79;85.25
83100;BME280;72972;51.784;4.660;2023-12-29T01:41:14;100859.16;;;9.77;84.93
83100;BME280;72972;51.784;4.660;2023-12-29T01:46:28;100842.53;;;9.79;85.02
83100;BME280;72972;51.784;4.660;2023-12-29T01:48:54;100862.75;;;9.78;85.08
83100;BME280;72972;51.784;4.660;2023-12-29T01:51:24;100846.13;;;9.79;85.16
83100;BME280;72972;51.784;4.660;2023-12-29T01:53:52;100855.75;;;9.75;85.24
83100;BME280;72972;51.784;4.660;2023-12-29T01:56:18;100852.63;;;9.78;85.19
83100;BME280;72972;51.784;4.660;2023-12-29T01:58:44;100830.66;;;9.72;85.72
83100;BME280;72972;51.784;4.660;2023-12-29T02:01:11;100820.00;;;9.62;84.75
83100;BME280;72972;51.784;4.660;2023-12-29T02:03:38;100837.44;;;9.76;85.46
83100;BME280;72972;51.784;4.660;2023-12-29T02:06:04;100849.06;;;9.78;84.94
83100;BME280;72972;51.784;4.660;2023-12-29T02:08:31;100852.03;;;9.83;84.36
83100;BME280;72972;51.784;4.660;2023-12-29T02:10:57;100851.22;;;9.82;85.19
83100;BME280;72972;51.784;4.660;2023-12-29T02:13:23;100856.22;;;9.93;84.15
83100;BME280;72972;51.784;4.660;2023-12-29T02:15:54;100857.31;;;9.99;84.00
83100;BME280;72972;51.784;4.660;2023-12-29T02:18:21;100862.78;;;9.99;84.17
83100;BME280;72972;51.784;4.660;2023-12-29T02:20:47;100863.38;;;9.94;84.12
83100;BME280;72972;51.784;4.660;2023-12-29T02:23:13;100870.72;;;9.94;83.99
83100;BME280;72972;51.784;4.660;2023-12-29T02:25:39;100868.84;;;9.94;83.79
83100;BME280;72972;51.784;4.660;2023-12-29T02:28:14;100872.34;;;9.88;83.63
83100;BME280;72972;51.784;4.660;2023-12-29T02:31:01;100871.13;;;9.91;83.91
83100;BME280;72972;51.784;4.660;2023-12-29T02:33:33;100863.75;;;9.91;83.71
83100;BME280;72972;51.784;4.660;2023-12-29T02:36:02;100869.72;;;9.95;84.54
83100;BME280;72972;51.784;4.660;2023-12-29T02:38:29;100852.72;;;9.85;83.80
83100;BME280;72972;51.784;4.660;2023-12-29T02:40:56;100868.84;;;9.94;83.82
83100;BME280;72972;51.784;4.660;2023-12-29T02:43:22;100854.75;;;9.97;83.90
83100;BME280;72972;51.784;4.660;2023-12-29T02:45:47;100850.34;;;9.96;83.83
83100;BME280;72972;51.784;4.660;2023-12-29T02:48:13;100860.44;;;9.96;83.81
83100;BME280;72972;51.784;4.660;2023-12-29T02:50:38;100824.53;;;9.91;84.69
83100;BME280;72972;51.784;4.660;2023-12-29T02:53:04;100856.44;;;9.98;84.37
83100;BME280;72972;51.784;4.660;2023-12-29T02:55:30;100844.28;;;10.01;83.40
83100;BME280;72972;51.784;4.660;2023-12-29T02:57:56;100854.75;;;9.97;84.14
83100;BME280;72972;51.784;4.660;2023-12-29T03:00:23;100858.81;;;10.01;83.70
83100;BME280;72972;51.784;4.660;2023-12-29T03:02:49;100853.06;;;9.96;83.68
83100;BME280;72972;51.784;4.660;2023-12-29T03:05:14;100868.06;;;10.00;83.94
83100;BME280;72972;51.784;4.660;2023-12-29T03:07:40;100864.66;;;9.98;83.56
83100;BME280;72972;51.784;4.660;2023-12-29T03:10:06;100846.47;;;9.91;84.23
83100;BME280;72972;51.784;4.660;2023-12-29T03:12:32;100846.13;;;9.79;84.28
83100;BME280;72972;51.784;4.660;2023-12-29T03:14:58;100860.81;;;9.93;83.81
83100;BME280;72972;51.784;4.660;2023-12-29T03:17:23;100852.44;;;9.80;83.76
83100;BME280;72972;51.784;4.660;2023-12-29T03:19:49;100875.38;;;9.93;84.01
83100;BME280;72972;51.784;4.660;2023-12-29T03:22:14;100863.66;;;9.99;83.36
83100;BME280;72972;51.784;4.660;2023-12-29T03:24:40;100871.69;;;10.01;83.13
83100;BME280;72972;51.784;4.660;2023-12-29T03:27:06;100869.75;;;10.01;83.67
83100;BME280;72972;51.784;4.660;2023-12-29T03:29:32;100883.28;;;10.03;83.87
83100;BME280;72972;51.784;4.660;2023-12-29T03:31:57;100859.13;;;9.92;84.34
83100;BME280;72972;51.784;4.660;2023-12-29T03:34:23;100866.09;;;9.94;84.64
83100;BME280;72972;51.784;4.660;2023-12-29T03:36:48;100851.34;;;9.95;84.07
83100;BME280;72972;51.784;4.660;2023-12-29T03:39:14;100871.97;;;9.91;83.93
83100;BME280;72972;51.784;4.660;2023-12-29T03:41:39;100862.91;;;9.91;83.86
83100;BME280;72972;51.784;4.660;2023-12-29T03:44:05;100855.06;;;9.88;84.14
83100;BME280;72972;51.784;4.660;2023-12-29T03:46:31;100852.91;;;9.83;84.28
83100;BME280;72972;51.784;4.660;2023-12-29T03:48:57;100863.56;;;9.93;84.09
83100;BME280;72972;51.784;4.660;2023-12-29T03:51:22;100865.06;;;9.95;83.86
83100;BME280;72972;51.784;4.660;2023-12-29T03:53:48;100847.31;;;9.91;83.74
83100;BME280;72972;51.784;4.660;2023-12-29T03:56:15;100852.72;;;9.85;84.88
83100;BME280;72972;51.784;4.660;2023-12-29T03:58:45;100849.38;;;9.89;84.46
83100;BME280;72972;51.784;4.660;2023-12-29T04:01:11;100876.41;;;9.92;84.49
83100;BME280;72972;51.784;4.660;2023-12-29T04:03:37;100867.53;;;9.90;84.33
83100;BME280;72972;51.784;4.660;2023-12-29T04:06:04;100870.09;;;9.92;84.82
83100;BME280;72972;51.784;4.660;2023-12-29T04:08:30;100861.22;;;9.90;84.13
83100;BME280;72972;51.784;4.660;2023-12-29T04:10:56;100860.53;;;9.88;83.88
83100;BME280;72972;51.784;4.660;2023-12-29T04:13:21;100865.81;;;9.89;84.57
83100;BME280;72972;51.784;4.660;2023-12-29T04:15:47;100868.28;;;9.84;84.27
83100;BME280;72972;51.784;4.660;2023-12-29T04:18:12;100868.94;;;9.86;84.97
83100;BME280;72972;51.784;4.660;2023-12-29T04:20:38;100886.81;;;9.82;84.40
83100;BME280;72972;51.784;4.660;2023-12-29T04:23:06;100878.78;;;9.81;84.84
83100;BME280;72972;51.784;4.660;2023-12-29T04:25:32;100867.84;;;9.81;85.20
83100;BME280;72972;51.784;4.660;2023-12-29T04:27:57;100876.50;;;9.84;84.91
83100;BME280;72972;51.784;4.660;2023-12-29T04:30:23;100849.81;;;9.72;85.43
83100;BME280;72972;51.784;4.660;2023-12-29T04:32:49;100878.84;;;9.87;84.84
83100;BME280;72972;51.784;4.660;2023-12-29T04:35:15;100866.50;;;9.77;84.77
83100;BME280;72972;51.784;4.660;2023-12-29T04:37:43;100875.00;;;9.82;85.00
83100;BME280;72972;51.784;4.660;2023-12-29T04:40:08;100868.94;;;9.86;85.68
83100;BME280;72972;51.784;4.660;2023-12-29T04:42:34;100867.06;;;9.87;84.35
83100;BME280;72972;51.784;4.660;2023-12-29T04:45:00;100855.63;;;9.83;85.37
83100;BME280;72972;51.784;4.660;2023-12-29T04:47:25;100866.78;;;9.82;85.66
83100;BME280;72972;51.784;4.660;2023-12-29T04:49:51;100867.25;;;9.85;85.76
83100;BME280;72972;51.784;4.660;2023-12-29T04:52:16;100859.03;;;9.85;84.59
83100;BME280;72972;51.784;4.660;2023-12-29T04:54:42;100855.63;;;9.83;85.91
83100;BME280;72972;51.784;4.660;2023-12-29T04:57:07;100838.28;;;9.76;85.02
83100;BME280;72972;51.784;4.660;2023-12-29T04:59:33;100822.72;;;9.62;85.75
83100;BME280;72972;51.784;4.660;2023-12-29T05:01:58;100849.88;;;9.78;85.46
83100;BME280;72972;51.784;4.660;2023-12-29T05:04:24;100846.50;;;9.76;85.42
83100;BME280;72972;51.784;4.660;2023-12-29T05:06:49;100843.09;;;9.74;85.55
83100;BME280;72972;51.784;4.660;2023-12-29T05:09:14;100862.28;;;9.74;85.91
83100;BME280;72972;51.784;4.660;2023-12-29T05:11:40;100869.53;;;9.82;85.61
83100;BME280;72972;51.784;4.660;2023-12-29T05:14:05;100855.09;;;9.73;85.52
83100;BME280;72972;51.784;4.660;2023-12-29T05:16:31;100836.94;;;9.72;85.05
83100;BME280;72972;51.784;4.660;2023-12-29T05:18:56;100860.44;;;9.81;85.47
83100;BME280;72972;51.784;4.660;2023-12-29T05:21:22;100859.53;;;9.74;85.66
83100;BME280;72972;51.784;4.660;2023-12-29T05:23:49;100862.28;;;9.74;85.98
83100;BME280;72972;51.784;4.660;2023-12-29T05:26:14;100845.34;;;9.71;85.80
83100;BME280;72972;51.784;4.660;2023-12-29T05:28:40;100848.97;;;9.71;85.52
83100;BME280;72972;51.784;4.660;2023-12-29T05:31:06;100853.00;;;9.75;85.20
83100;BME280;72972;51.784;4.660;2023-12-29T05:33:32;100847.91;;;9.72;84.93
83100;BME280;72972;51.784;4.660;2023-12-29T05:35:58;100842.00;;;9.69;85.26
83100;BME280;72972;51.784;4.660;2023-12-29T05:38:25;100824.16;;;9.58;85.63
83100;BME280;72972;51.784;4.660;2023-12-29T05:40:51;100847.28;;;9.70;85.36
83100;BME280;72972;51.784;4.660;2023-12-29T05:43:17;100842.56;;;9.64;85.79
83100;BME280;72972;51.784;4.660;2023-12-29T05:45:43;100845.31;;;9.64;85.68
83100;BME280;72972;51.784;4.660;2023-12-29T05:48:08;100838.78;;;9.65;85.64
83100;BME280;72972;51.784;4.660;2023-12-29T05:50:34;100816.13;;;9.57;85.35
83100;BME280;72972;51.784;4.660;2023-12-29T05:52:59;100842.75;;;9.63;85.88
83100;BME280;72972;51.784;4.660;2023-12-29T05:55:25;100833.88;;;9.61;85.59
83100;BME280;72972;51.784;4.660;2023-12-29T05:57:50;100809.03;;;9.62;85.73
83100;BME280;72972;51.784;4.660;2023-12-29T06:00:16;100813.66;;;9.62;85.54
83100;BME280;72972;51.784;4.660;2023-12-29T06:02:42;100815.38;;;9.48;85.93
83100;BME280;72972;51.784;4.660;2023-12-29T06:05:09;100837.47;;;9.61;85.66
83100;BME280;72972;51.784;4.660;2023-12-29T06:07:35;100832.38;;;9.58;85.81
83100;BME280;72972;51.784;4.660;2023-12-29T06:10:01;100838.88;;;9.57;85.93
83100;BME280;72972;51.784;4.660;2023-12-29T06:12:26;100842.00;;;9.69;87.30
83100;BME280;72972;51.784;4.660;2023-12-29T06:14:52;100847.09;;;9.57;89.13
83100;BME280;72972;51.784;4.660;2023-12-29T06:17:17;100833.50;;;9.49;89.46
83100;BME280;72972;51.784;4.660;2023-12-29T06:19:43;100856.81;;;9.45;90.51
83100;BME280;72972;51.784;4.660;2023-12-29T06:22:08;100836.06;;;9.36;91.81
83100;BME280;72972;51.784;4.660;2023-12-29T06:24:42;100826.25;;;9.27;92.28
83100;BME280;72972;51.784;4.660;2023-12-29T06:27:09;100837.75;;;9.37;91.29
83100;BME280;72972;51.784;4.660;2023-12-29T06:29:35;100849.44;;;9.31;91.50
83100;BME280;72972;51.784;4.660;2023-12-29T06:32:00;100817.66;;;9.30;91.34
83100;BME280;72972;51.784;4.660;2023-12-29T06:34:26;100812.19;;;9.30;91.28
83100;BME280;72972;51.784;4.660;2023-12-29T06:36:51;100806.03;;;9.28;91.19
83100;BME280;72972;51.784;4.660;2023-12-29T06:39:17;100822.06;;;9.31;92.04
83100;BME280;72972;51.784;4.660;2023-12-29T06:41:43;100822.19;;;9.23;92.09
83100;BME280;72972;51.784;4.660;2023-12-29T06:44:08;100833.41;;;9.28;93.24
83100;BME280;72972;51.784;4.660;2023-12-29T06:46:33;100798.41;;;9.24;93.88
83100;BME280;72972;51.784;4.660;2023-12-29T06:48:59;100811.44;;;9.22;93.34
83100;BME280;72972;51.784;4.660;2023-12-29T06:51:24;100814.38;;;9.20;93.81
83100;BME280;72972;51.784;4.660;2023-12-29T06:53:50;100809.34;;;9.24;92.64
83100;BME280;72972;51.784;4.660;2023-12-29T06:56:16;100810.31;;;9.31;91.38
83100;BME280;72972;51.784;4.660;2023-12-29T06:58:41;100785.00;;;9.29;91.88
83100;BME280;72972;51.784;4.660;2023-12-29T07:01:07;100822.56;;;9.35;92.30
83100;BME280;72972;51.784;4.660;2023-12-29T07:03:32;100830.38;;;9.38;92.10
83100;BME280;72972;51.784;4.660;2023-12-29T07:06:00;100815.59;;;9.32;91.88
83100;BME280;72972;51.784;4.660;2023-12-29T07:08:27;100821.59;;;9.42;91.81
83100;BME280;72972;51.784;4.660;2023-12-29T07:10:52;100818.41;;;9.39;91.61
83100;BME280;72972;51.784;4.660;2023-12-29T07:13:18;100824.53;;;9.41;91.80
83100;BME280;72972;51.784;4.660;2023-12-29T07:15:45;100814.69;;;9.46;91.77
83100;BME280;72972;51.784;4.660;2023-12-29T07:18:10;100825.66;;;9.46;91.87
83100;BME280;72972;51.784;4.660;2023-12-29T07:20:35;100833.88;;;9.46;91.66
83100;BME280;72972;51.784;4.660;2023-12-29T07:23:01;100820.94;;;9.40;91.90
83100;BME280;72972;51.784;4.660;2023-12-29T07:25:27;100821.91;;;9.47;92.02
83100;BME280;72972;51.784;4.660;2023-12-29T07:27:52;100808.97;;;9.41;91.82
83100;BME280;72972;51.784;4.660;2023-12-29T07:30:18;100816.41;;;9.47;91.25
83100;BME280;72972;51.784;4.660;2023-12-29T07:32:59;100810.94;;;9.47;91.07
83100;BME280;72972;51.784;4.660;2023-12-29T07:35:26;100811.34;;;9.44;91.80
83100;BME280;72972;51.784;4.660;2023-12-29T07:37:51;100824.06;;;9.52;92.20
83100;BME280;72972;51.784;4.660;2023-12-29T07:40:17;100804.50;;;9.55;91.44
83100;BME280;72972;51.784;4.660;2023-12-29T07:42:43;100811.34;;;9.44;91.17
83100;BME280;72972;51.784;4.660;2023-12-29T07:45:09;100811.22;;;9.38;91.56
83100;BME280;72972;51.784;4.660;2023-12-29T07:47:36;100822.28;;;9.44;90.87
83100;BME280;72972;51.784;4.660;2023-12-29T07:50:01;100811.78;;;9.48;90.40
83100;BME280;72972;51.784;4.660;2023-12-29T07:52:27;100820.47;;;9.51;90.84
83100;BME280;72972;51.784;4.660;2023-12-29T07:54:52;100800.19;;;9.46;90.72
83100;BME280;72972;51.784;4.660;2023-12-29T07:57:18;100813.41;;;9.57;90.76
83100;BME280;72972;51.784;4.660;2023-12-29T07:59:43;100816.41;;;9.47;90.58
83100;BME280;72972;51.784;4.660;2023-12-29T08:02:09;100841.16;;;9.54;90.76
83100;BME280;72972;51.784;4.660;2023-12-29T08:04:35;100841.78;;;9.56;90.54
83100;BME280;72972;51.784;4.660;2023-12-29T08:07:01;100833.97;;;9.53;90.99
83100;BME280;72972;51.784;4.660;2023-12-29T08:09:27;100813.41;;;9.42;90.05
83100;BME280;72972;51.784;4.660;2023-12-29T08:11:52;100846.25;;;9.57;90.25
83100;BME280;72972;51.784;4.660;2023-12-29T08:14:18;100844.81;;;9.61;90.56
83100;BME280;72972;51.784;4.660;2023-12-29T08:16:44;100867.19;;;9.64;89.72
83100;BME280;72972;51.784;4.660;2023-12-29T08:19:09;100858.31;;;9.62;90.08
83100;BME280;72972;51.784;4.660;2023-12-29T08:21:36;100859.63;;;9.66;89.29
83100;BME280;72972;51.784;4.660;2023-12-29T08:24:02;100860.28;;;9.68;88.90
83100;BME280;72972;51.784;4.660;2023-12-29T08:26:28;100850.78;;;9.64;89.75
83100;BME280;72972;51.784;4.660;2023-12-29T08:28:54;100867.00;;;9.66;89.40
83100;BME280;72972;51.784;4.660;2023-12-29T08:31:20;100855.88;;;9.67;89.07
83100;BME280;72972;51.784;4.660;2023-12-29T08:33:46;100826.13;;;9.50;89.55
83100;BME280;72972;51.784;4.660;2023-12-29T08:36:12;100848.66;;;9.66;89.96
83100;BME280;72972;51.784;4.660;2023-12-29T08:38:38;100846.78;;;9.67;88.88
83100;BME280;72972;51.784;4.660;2023-12-29T08:41:04;100844.25;;;9.65;89.06
83100;BME280;72972;51.784;4.660;2023-12-29T08:43:32;100844.63;;;9.62;89.10
83100;BME280;72972;51.784;4.660;2023-12-29T08:46:01;100855.88;;;9.67;88.83
83100;BME280;72972;51.784;4.660;2023-12-29T08:48:26;100864.63;;;9.77;88.82
83100;BME280;72972;51.784;4.660;2023-12-29T08:50:51;100861.69;;;9.79;88.25
83100;BME280;72972;51.784;4.660;2023-12-29T08:53:17;100843.28;;;9.73;87.93
83100;BME280;72972;51.784;4.660;2023-12-29T08:55:43;100863.38;;;9.80;88.62
83100;BME280;72972;51.784;4.660;2023-12-29T08:58:08;100845.44;;;9.77;88.08
83100;BME280;72972;51.784;4.660;2023-12-29T09:00:34;100841.41;;;9.73;88.16
83100;BME280;72972;51.784;4.660;2023-12-29T09:03:00;100839.69;;;9.87;87.85
83100;BME280;72972;51.784;4.660;2023-12-29T09:05:25;100842.03;;;9.90;87.32
83100;BME280;72972;51.784;4.660;2023-12-29T09:07:51;100843.25;;;9.87;87.42
83100;BME280;72972;51.784;4.660;2023-12-29T09:10:16;100835.69;;;9.89;86.94
83100;BME280;72972;51.784;4.660;2023-12-29T09:12:43;100849.00;;;9.92;88.00
83100;BME280;72972;51.784;4.660;2023-12-29T09:15:11;100840.50;;;9.87;87.91
83100;BME280;72972;51.784;4.660;2023-12-29T09:17:36;100844.09;;;9.88;88.13
83100;BME280;72972;51.784;4.660;2023-12-29T09:20:02;100848.91;;;9.86;87.82
83100;BME280;72972;51.784;4.660;2023-12-29T09:22:28;100841.75;;;9.85;88.27
83100;BME280;72972;51.784;4.660;2023-12-29T09:24:54;100859.13;;;9.92;88.04
83100;BME280;72972;51.784;4.660;2023-12-29T09:27:23;100851.09;;;9.90;88.01
83100;BME280;72972;51.784;4.660;2023-12-29T09:29:50;100842.56;;;10.00;87.94
83100;BME280;72972;51.784;4.660;2023-12-29T09:32:15;100862.22;;;10.03;87.69
83100;BME280;72972;51.784;4.660;2023-12-29T09:34:41;100866.63;;;10.04;87.57
83100;BME280;72972;51.784;4.660;2023-12-29T09:37:07;100852.41;;;9.94;88.00
83100;BME280;72972;51.784;4.660;2023-12-29T09:39:35;100883.06;;;10.04;87.98
83100;BME280;72972;51.784;4.660;2023-12-29T09:42:03;100887.38;;;10.07;87.47
83100;BME280;72972;51.784;4.660;2023-12-29T09:44:30;100885.63;;;10.06;87.51
83100;BME280;72972;51.784;4.660;2023-12-29T09:47:00;100880.25;;;10.12;87.74
83100;BME280;72972;51.784;4.660;2023-12-29T09:49:36;100894.06;;;10.19;87.79
83100;BME280;72972;51.784;4.660;2023-12-29T09:52:03;100895.75;;;10.20;86.82
83100;BME280;72972;51.784;4.660;2023-12-29T09:54:31;100897.00;;;10.17;87.35
83100;BME280;72972;51.784;4.660;2023-12-29T09:57:00;100905.41;;;10.16;87.51
83100;BME280;72972;51.784;4.660;2023-12-29T09:59:26;100908.59;;;10.19;86.94
83100;BME280;72972;51.784;4.660;2023-12-29T10:01:53;100907.56;;;10.20;86.89
83100;BME280;72972;51.784;4.660;2023-12-29T10:04:19;100914.34;;;10.24;87.06
83100;BME280;72972;51.784;4.660;2023-12-29T10:06:47;100923.25;;;10.26;87.35
83100;BME280;72972;51.784;4.660;2023-12-29T10:09:15;100905.94;;;10.26;86.62
83100;BME280;72972;51.784;4.660;2023-12-29T10:11:46;100914.72;;;10.21;87.41
83100;BME280;72972;51.784;4.660;2023-12-29T10:14:37;100923.91;;;10.28;86.84
83100;BME280;72972;51.784;4.660;2023-12-29T10:17:12;100924.53;;;10.30;86.89
83100;BME280;72972;51.784;4.660;2023-12-29T10:19:45;100932.47;;;10.25;86.66
83100;BME280;72972;51.784;4.660;2023-12-29T10:22:22;100937.59;;;10.28;87.53
83100;BME280;72972;51.784;4.660;2023-12-29T10:24:52;100940.59;;;10.33;86.96
83100;BME280;72972;51.784;4.660;2023-12-29T10:27:18;100932.56;;;10.32;87.00
83100;BME280;72972;51.784;4.660;2023-12-29T10:29:43;100937.22;;;10.31;86.62
83100;BME280;72972;51.784;4.660;2023-12-29T10:32:09;100944.41;;;10.32;86.39
83100;BME280;72972;51.784;4.660;2023-12-29T10:34:35;100955.25;;;10.40;86.86
83100;BME280;72972;51.784;4.660;2023-12-29T10:37:01;100944.09;;;10.42;86.45
83100;BME280;72972;51.784;4.660;2023-12-29T10:39:35;100951.75;;;10.46;85.74
83100;BME280;72972;51.784;4.660;2023-12-29T10:42:06;100939.44;;;10.42;86.31
83100;BME280;72972;51.784;4.660;2023-12-29T10:44:33;100950.03;;;10.45;85.65
83100;BME280;72972;51.784;4.660;2023-12-29T10:47:07;100947.22;;;10.39;86.06
83100;BME280;72972;51.784;4.660;2023-12-29T10:49:33;100942.38;;;10.41;85.89
83100;BME280;72972;51.784;4.660;2023-12-29T10:51:58;100958.91;;;10.47;85.30
83100;BME280;72972;51.784;4.660;2023-12-29T10:54:24;100939.00;;;10.39;86.11
83100;BME280;72972;51.784;4.660;2023-12-29T10:57:02;100949.00;;;10.46;86.11
83100;BME280;72972;51.784;4.660;2023-12-29T10:59:28;100945.59;;;10.44;85.64
83100;BME280;72972;51.784;4.660;2023-12-29T11:01:54;100956.06;;;10.55;85.87
83100;BME280;72972;51.784;4.660;2023-12-29T11:04:22;100938.28;;;10.51;85.49
83100;BME280;72972;51.784;4.660;2023-12-29T11:06:50;100960.75;;;10.61;85.09
83100;BME280;72972;51.784;4.660;2023-12-29T11:09:34;100946.84;;;10.63;84.99
83100;BME280;72972;51.784;4.660;2023-12-29T11:12:02;100943.53;;;10.68;84.17
83100;BME280;72972;51.784;4.660;2023-12-29T11:14:28;100935.69;;;10.64;85.05
83100;BME280;72972;51.784;4.660;2023-12-29T11:16:54;100934.63;;;10.65;84.79
83100;BME280;72972;51.784;4.660;2023-12-29T11:19:21;100940.59;;;10.69;84.69
83100;BME280;72972;51.784;4.660;2023-12-29T11:21:48;100933.63;;;10.67;84.53
83100;BME280;72972;51.784;4.660;2023-12-29T11:24:17;100949.28;;;10.73;83.73
83100;BME280;72972;51.784;4.660;2023-12-29T11:26:43;100947.38;;;10.73;84.26
83100;BME280;72972;51.784;4.660;2023-12-29T11:29:13;100952.94;;;10.80;83.90
83100;BME280;72972;51.784;4.660;2023-12-29T11:31:40;100957.63;;;10.86;84.08
83100;BME280;72972;51.784;4.660;2023-12-29T11:34:26;100950.06;;;10.88;84.07
83100;BME280;72972;51.784;4.660;2023-12-29T11:37:05;100942.88;;;10.87;83.65
83100;BME280;72972;51.784;4.660;2023-12-29T11:39:53;100932.34;;;10.90;83.88
83100;BME280;72972;51.784;4.660;2023-12-29T11:42:28;100929.41;;;10.92;83.81
83100;BME280;72972;51.784;4.660;2023-12-29T11:44:56;100922.44;;;10.89;83.25
83100;BME280;72972;51.784;4.660;2023-12-29T11:47:36;100940.25;;;11.00;83.30
83100;BME280;72972;51.784;4.660;2023-12-29T11:50:03;100930.69;;;10.96;83.50
83100;BME280;72972;51.784;4.660;2023-12-29T11:52:35;100931.38;;;10.98;83.94
83100;BME280;72972;51.784;4.660;2023-12-29T11:55:08;100934.56;;;11.01;83.28
83100;BME280;72972;51.784;4.660;2023-12-29T11:57:34;100925.94;;;11.04;83.56
83100;BME280;72972;51.784;4.660;2023-12-29T12:00:02;100907.31;;;11.00;83.73
83100;BME280;72972;51.784;4.660;2023-12-29T12:02:31;100921.75;;;11.08;83.55
83100;BME280;72972;51.784;4.660;2023-12-29T12:04:57;100919.41;;;11.05;83.76
83100;BME280;72972;51.784;4.660;2023-12-29T12:12:59;100889.31;;;10.91;84.38
83100;BME280;72972;51.784;4.660;2023-12-29T12:17:56;100894.13;;;10.89;84.43
83100;BME280;72972;51.784;4.660;2023-12-29T12:20:22;100912.56;;;10.95;84.72
83100;BME280;72972;51.784;4.660;2023-12-29T12:22:51;100901.97;;;10.92;84.83
83100;BME280;72972;51.784;4.660;2023-12-29T12:25:24;100904.72;;;10.92;85.01
83100;BME280;72972;51.784;4.660;2023-12-29T12:27:51;100894.72;;;10.84;84.93
83100;BME280;72972;51.784;4.660;2023-12-29T12:30:21;100896.03;;;10.88;84.84
83100;BME280;72972;51.784;4.660;2023-12-29T12:32:57;100891.13;;;10.84;85.24
83100;BME280;72972;51.784;4.660;2023-12-29T12:35:23;100895.00;;;10.89;85.04
83100;BME280;72972;51.784;4.660;2023-12-29T12:37:51;100889.44;;;10.83;85.38
83100;BME280;72972;51.784;4.660;2023-12-29T12:40:31;100871.69;;;10.79;85.92
83100;BME280;72972;51.784;4.660;2023-12-29T12:42:59;100896.41;;;10.85;85.91
83100;BME280;72972;51.784;4.660;2023-12-29T12:45:29;100871.44;;;10.74;85.93
83100;BME280;72972;51.784;4.660;2023-12-29T12:48:13;100883.56;;;10.86;85.99
83100;BME280;72972;51.784;4.660;2023-12-29T12:50:44;100865.75;;;10.75;86.99
83100;BME280;72972;51.784;4.660;2023-12-29T12:53:13;100865.53;;;10.77;86.47
83100;BME280;72972;51.784;4.660;2023-12-29T12:55:49;100872.72;;;10.78;87.00
83100;BME280;72972;51.784;4.660;2023-12-29T12:58:19;100861.75;;;10.78;86.09
83100;BME280;72972;51.784;4.660;2023-12-29T13:00:51;100868.94;;;10.79;86.45
83100;BME280;72972;51.784;4.660;2023-12-29T13:03:17;100871.91;;;10.84;85.94
83100;BME280;72972;51.784;4.660;2023-12-29T13:05:43;100876.13;;;10.80;86.57
83100;BME280;72972;51.784;4.660;2023-12-29T13:08:11;100870.03;;;10.84;85.86